createdAt,value
2022-09-14T00:01:30.101Z,88.98
2022-09-14T00:03:59.715Z,89.75
2022-09-14T00:06:28.619Z,90.10
2022-09-14T00:09:00.719Z,90.04
2022-09-14T00:11:31.088Z,89.74
2022-09-14T00:14:00.289Z,89.93
2022-09-14T00:16:31.460Z,90.54
2022-09-14T00:19:01.364Z,90.29
2022-09-14T00:21:29.685Z,90.81
2022-09-14T00:23:58.781Z,90.68
2022-09-14T00:26:26.759Z,90.51
2022-09-14T00:28:58.010Z,90.56
2022-09-14T00:31:27.054Z,90.84
2022-09-14T00:33:55.148Z,90.08
2022-09-14T00:36:24.905Z,90.76
2022-09-14T00:38:53.296Z,91.29
2022-09-14T00:41:24.993Z,91.33
2022-09-14T00:43:57.825Z,91.69
2022-09-14T00:46:27.594Z,90.97
2022-09-14T00:48:57.199Z,91.56
2022-09-14T00:51:26.148Z,91.60
2022-09-14T00:53:55.270Z,91.39
2022-09-14T00:56:24.487Z,91.86
2022-09-14T00:58:54.384Z,92.28
2022-09-14T01:01:22.227Z,91.79
2022-09-14T01:03:50.007Z,92.56
2022-09-14T01:06:26.208Z,92.58
2022-09-14T01:09:14.259Z,92.75
2022-09-14T01:11:56.570Z,92.99
2022-09-14T01:14:32.939Z,92.08
2022-09-14T01:17:21.143Z,92.74
2022-09-14T01:20:14.212Z,93.04
2022-09-14T01:22:49.091Z,93.18
2022-09-14T01:25:32.091Z,92.87
2022-09-14T01:28:04.358Z,92.79
2022-09-14T01:30:36.214Z,92.21
2022-09-14T01:33:10.182Z,92.57
2022-09-14T01:35:44.758Z,92.64
2022-09-14T01:38:20.173Z,93.09
2022-09-14T01:40:50.197Z,93.02
2022-09-14T01:43:26.003Z,92.73
2022-09-14T01:45:57.042Z,93.24
2022-09-14T01:48:31.694Z,93.45
2022-09-14T01:51:05.261Z,93.80
2022-09-14T01:53:38.061Z,93.41
2022-09-14T01:56:10.486Z,93.50
2022-09-14T01:58:45.200Z,93.44
2022-09-14T02:01:18.226Z,94.09
2022-09-14T02:03:50.911Z,94.19
2022-09-14T02:06:23.961Z,94.20
2022-09-14T02:08:53.095Z,94.07
2022-09-14T02:11:20.901Z,94.09
2022-09-14T02:13:50.148Z,94.27
2022-09-14T02:16:18.679Z,94.49
2022-09-14T02:18:46.614Z,94.66
2022-09-14T02:21:17.984Z,94.08
2022-09-14T02:23:45.854Z,94.42
2022-09-14T02:26:13.930Z,94.33
2022-09-14T02:28:41.661Z,93.97
2022-09-14T02:31:27.955Z,94.10
2022-09-14T02:34:04.250Z,94.46
2022-09-14T02:36:42.750Z,94.99
2022-09-14T02:39:18.568Z,94.71
2022-09-14T02:41:51.509Z,95.01
2022-09-14T02:44:27.509Z,95.27
2022-09-14T02:47:02.170Z,95.04
2022-09-14T02:49:38.946Z,94.86
2022-09-14T02:52:13.970Z,95.30
2022-09-14T02:54:47.912Z,95.85
2022-09-14T02:57:15.810Z,96.04
2022-09-14T02:59:43.736Z,96.15
2022-09-14T03:02:12.903Z,95.78
2022-09-14T03:04:40.653Z,96.05
2022-09-14T03:07:08.685Z,96.88
2022-09-14T03:09:36.588Z,97.97
2022-09-14T03:12:04.908Z,97.84
2022-09-14T03:14:32.652Z,97.86
2022-09-14T03:17:00.423Z,97.70
2022-09-14T03:19:29.448Z,97.74
2022-09-14T03:21:57.133Z,98.37
2022-09-14T03:24:24.875Z,98.02
2022-09-14T03:26:52.865Z,98.61
2022-09-14T03:29:20.568Z,98.49
2022-09-14T03:31:48.292Z,98.47
2022-09-14T03:34:16.245Z,97.61
2022-09-14T03:36:45.304Z,97.90
2022-09-14T03:39:13.317Z,98.68
2022-09-14T03:41:41.059Z,98.91
2022-09-14T03:44:10.796Z,98.85
2022-09-14T03:46:38.743Z,98.90
2022-09-14T03:49:06.820Z,98.65
2022-09-14T03:51:35.064Z,98.80
2022-09-14T03:54:05.904Z,99.16
2022-09-14T03:56:33.674Z,99.11
2022-09-14T03:59:01.381Z,99.33
2022-09-14T04:01:29.187Z,98.43
2022-09-14T04:03:57.038Z,98.77
2022-09-14T04:06:26.036Z,98.08
2022-09-14T04:08:55.175Z,99.06
2022-09-14T04:11:25.778Z,98.54
2022-09-14T04:13:54.027Z,98.92
2022-09-14T04:16:22.875Z,98.18
2022-09-14T04:18:50.926Z,99.00
2022-09-14T04:21:20.773Z,99.28
2022-09-14T04:24:13.468Z,99.24
2022-09-14T04:26:37.903Z,99.27
2022-09-14T04:29:06.015Z,99.11
2022-09-14T04:31:34.252Z,98.36
2022-09-14T04:34:01.984Z,99.43
2022-09-14T04:36:31.150Z,100.00
2022-09-14T04:39:01.265Z,100.00
2022-09-14T04:41:30.729Z,99.74
2022-09-14T04:44:00.820Z,99.53
2022-09-14T04:46:30.513Z,99.14
2022-09-14T04:48:59.267Z,100.00
2022-09-14T04:51:28.828Z,99.97
2022-09-14T04:53:59.077Z,100.00
2022-09-14T04:56:27.924Z,100.00
2022-09-14T04:58:57.951Z,100.00
2022-09-14T05:01:29.941Z,100.00
2022-09-14T05:03:58.711Z,100.00
2022-09-14T05:06:28.392Z,100.00
2022-09-14T05:08:57.033Z,100.00
2022-09-14T05:11:28.682Z,100.00
2022-09-14T05:13:57.097Z,100.00
2022-09-14T05:16:29.227Z,100.00
2022-09-14T05:18:58.794Z,99.17
2022-09-14T05:21:26.656Z,99.87
2022-09-14T05:23:55.970Z,99.85
2022-09-14T05:26:25.441Z,100.00
2022-09-14T05:28:54.853Z,100.00
2022-09-14T05:31:23.942Z,100.00
2022-09-14T05:33:53.326Z,99.04
2022-09-14T05:36:21.625Z,99.23
2022-09-14T05:38:49.431Z,98.83
2022-09-14T05:41:18.173Z,98.42
2022-09-14T05:43:46.169Z,98.16
2022-09-14T05:46:16.851Z,97.43
2022-09-14T05:48:44.979Z,96.53
2022-09-14T05:51:16.853Z,96.10
2022-09-14T05:53:48.024Z,95.42
2022-09-14T05:56:16.063Z,96.32
2022-09-14T05:58:44.309Z,96.20
2022-09-14T06:01:13.912Z,96.40
2022-09-14T06:03:42.087Z,95.77
2022-09-14T06:06:11.717Z,95.21
2022-09-14T06:08:41.873Z,94.31
2022-09-14T06:11:11.961Z,92.87
2022-09-14T06:13:39.799Z,94.38
2022-09-14T06:16:10.127Z,94.12
2022-09-14T06:18:39.098Z,92.78
2022-09-14T06:21:07.685Z,92.84
2022-09-14T06:23:35.499Z,91.76
2022-09-14T06:26:06.137Z,90.35
2022-09-14T06:28:35.262Z,89.29
2022-09-14T06:31:04.499Z,89.05
2022-09-14T06:33:32.633Z,88.51
2022-09-14T06:36:02.206Z,87.59
2022-09-14T06:38:30.703Z,87.86
2022-09-14T06:41:00.710Z,86.74
2022-09-14T06:43:32.535Z,86.78
2022-09-14T06:46:02.424Z,85.71
2022-09-14T06:48:31.488Z,85.62
2022-09-14T06:50:59.646Z,85.33
2022-09-14T06:53:27.518Z,84.75
2022-09-14T06:56:00.148Z,82.92
2022-09-14T06:58:29.300Z,82.63
2022-09-14T07:01:02.714Z,82.79
2022-09-14T07:03:31.229Z,83.24
2022-09-14T07:06:03.392Z,81.96
2022-09-14T07:08:31.156Z,82.21
2022-09-14T07:10:59.106Z,82.20
2022-09-14T07:13:27.241Z,82.14
2022-09-14T07:15:56.745Z,82.16
2022-09-14T07:18:28.391Z,82.25
2022-09-14T07:20:56.274Z,81.87
2022-09-14T07:23:24.024Z,81.40
2022-09-14T07:26:00.907Z,81.15
2022-09-14T07:28:28.679Z,80.56
2022-09-14T07:30:59.103Z,79.00
2022-09-14T07:33:27.332Z,79.25
2022-09-14T07:35:55.149Z,76.95
2022-09-14T07:38:35.826Z,76.14
2022-09-14T07:41:11.141Z,76.67
2022-09-14T07:43:38.884Z,76.10
2022-09-14T07:46:08.473Z,76.26
2022-09-14T07:48:37.452Z,76.04
2022-09-14T07:51:07.876Z,76.38
2022-09-14T07:53:38.239Z,76.87
2022-09-14T07:56:07.379Z,76.42
2022-09-14T07:58:35.430Z,75.68
2022-09-14T08:01:05.721Z,74.50
2022-09-14T08:03:36.254Z,74.31
2022-09-14T08:06:07.170Z,73.48
2022-09-14T08:08:37.085Z,72.62
2022-09-14T08:11:06.765Z,72.33
2022-09-14T08:13:35.783Z,72.45
2022-09-14T08:16:04.928Z,73.41
2022-09-14T08:18:35.719Z,72.17
2022-09-14T08:21:07.887Z,71.12
2022-09-14T08:23:36.416Z,70.38
2022-09-14T08:26:05.468Z,69.92
2022-09-14T08:28:33.911Z,68.95
2022-09-14T08:31:06.220Z,68.41
2022-09-14T08:33:37.569Z,68.47
2022-09-14T08:36:05.691Z,67.46
2022-09-14T08:38:33.610Z,67.99
2022-09-14T08:41:12.603Z,66.04
2022-09-14T08:43:40.703Z,64.92
2022-09-14T08:46:28.295Z,64.21
2022-09-14T08:48:58.091Z,65.50
2022-09-14T08:51:26.527Z,64.19
2022-09-14T08:53:57.087Z,62.32
2022-09-14T08:56:27.646Z,61.76
2022-09-14T08:59:17.990Z,62.75
2022-09-14T09:01:55.295Z,63.30
2022-09-14T09:04:40.369Z,64.54
2022-09-14T09:07:15.078Z,61.92
2022-09-14T09:09:46.496Z,61.23
2022-09-14T09:12:18.296Z,62.50
2022-09-14T09:14:52.113Z,60.33
2022-09-14T09:17:24.099Z,59.89
2022-09-14T09:20:06.614Z,60.26
2022-09-14T09:22:39.884Z,59.69
2022-09-14T09:25:16.619Z,58.97
2022-09-14T09:27:44.405Z,61.35
2022-09-14T09:30:15.387Z,61.13
2022-09-14T09:32:43.708Z,60.32
2022-09-14T09:35:30.153Z,58.91
2022-09-14T09:38:00.919Z,59.80
2022-09-14T09:40:35.283Z,59.73
2022-09-14T09:43:09.224Z,59.01
2022-09-14T09:45:56.529Z,58.78
2022-09-14T09:48:28.502Z,58.25
2022-09-14T09:51:08.381Z,57.59
2022-09-14T09:53:39.825Z,57.51
2022-09-14T09:56:08.505Z,57.95
2022-09-14T09:58:38.210Z,55.16
2022-09-14T10:01:12.396Z,55.17
2022-09-14T10:03:41.660Z,55.26
2022-09-14T10:06:12.904Z,56.16
2022-09-14T10:08:43.425Z,56.32
2022-09-14T10:11:36.510Z,55.98
2022-09-14T10:14:05.764Z,54.97
2022-09-14T10:16:38.129Z,54.93
2022-09-14T10:19:15.023Z,54.18
2022-09-14T10:24:37.061Z,53.65
2022-09-14T10:27:37.564Z,52.71
2022-09-14T10:30:08.117Z,50.99
2022-09-14T10:32:37.857Z,52.00
2022-09-14T10:35:13.818Z,51.34
2022-09-14T10:37:51.073Z,51.93
2022-09-14T10:40:23.528Z,52.25
2022-09-14T10:43:04.248Z,53.02
2022-09-14T10:45:37.016Z,51.97
2022-09-14T10:48:20.057Z,51.25
2022-09-14T10:50:58.751Z,51.18
2022-09-14T10:53:41.318Z,50.50
2022-09-14T10:56:18.304Z,50.66
2022-09-14T10:59:20.616Z,50.83
2022-09-14T11:02:29.573Z,50.40
2022-09-14T11:05:16.323Z,50.17
2022-09-14T11:07:56.231Z,50.25
2022-09-14T11:10:31.162Z,50.96
2022-09-14T11:13:35.246Z,50.80
2022-09-14T11:16:10.969Z,49.29
2022-09-14T11:18:48.385Z,49.25
2022-09-14T11:21:24.538Z,49.24
2022-09-14T11:23:56.868Z,49.55
2022-09-14T11:26:31.461Z,49.78
2022-09-14T11:29:10.172Z,49.94
2022-09-14T11:31:55.286Z,49.86
2022-09-14T11:34:36.956Z,48.39
2022-09-14T11:37:08.405Z,48.59
2022-09-14T11:39:39.526Z,48.69
2022-09-14T11:42:11.752Z,48.88
2022-09-14T11:44:44.552Z,48.48
2022-09-14T11:47:18.049Z,48.40
2022-09-14T11:49:56.161Z,48.40
2022-09-14T11:52:25.715Z,48.17
2022-09-14T11:54:54.609Z,49.04
2022-09-14T11:57:26.774Z,49.36
2022-09-14T11:59:57.346Z,48.88
2022-09-14T12:02:49.196Z,48.44
2022-09-14T12:05:29.853Z,49.28
2022-09-14T12:08:06.883Z,49.48
2022-09-14T12:11:02.753Z,49.30
2022-09-14T12:13:30.588Z,49.39
2022-09-14T12:16:07.895Z,49.92
2022-09-14T12:18:37.698Z,50.48
2022-09-14T12:21:09.168Z,51.80
2022-09-14T12:23:46.153Z,51.72
2022-09-14T12:26:30.256Z,52.42
2022-09-14T12:29:04.016Z,53.64
2022-09-14T12:32:01.156Z,53.72
2022-09-14T12:34:32.182Z,54.37
2022-09-14T12:37:31.577Z,54.27
2022-09-14T12:40:31.950Z,54.78
2022-09-14T12:43:47.286Z,54.48
2022-09-14T12:46:41.652Z,53.81
2022-09-14T12:49:32.616Z,53.79
2022-09-14T12:52:30.055Z,54.07
2022-09-14T12:55:11.965Z,54.26
2022-09-14T12:57:48.184Z,55.46
2022-09-14T13:00:19.731Z,55.18
2022-09-14T13:03:02.355Z,55.47
2022-09-14T13:05:34.638Z,55.73
2022-09-14T13:08:09.685Z,56.27
2022-09-14T13:10:39.141Z,55.64
2022-09-14T13:13:15.069Z,55.94
2022-09-14T13:15:52.120Z,56.34
2022-09-14T13:18:31.090Z,56.12
2022-09-14T13:21:02.323Z,57.04
2022-09-14T13:23:33.590Z,56.84
2022-09-14T13:26:09.245Z,56.94
2022-09-14T13:28:37.130Z,57.11
2022-09-14T13:31:06.677Z,57.31
2022-09-14T13:33:34.776Z,57.61
2022-09-14T13:36:05.233Z,57.21
2022-09-14T13:38:35.585Z,57.04
2022-09-14T13:41:11.570Z,56.78
2022-09-14T13:43:41.719Z,56.86
2022-09-14T13:46:10.712Z,57.13
2022-09-14T13:48:40.940Z,56.80
2022-09-14T13:51:11.491Z,56.07
2022-09-14T13:53:42.518Z,55.94
2022-09-14T13:56:18.999Z,55.54
2022-09-14T13:58:47.438Z,55.01
2022-09-14T14:01:26.291Z,54.93
2022-09-14T14:03:54.259Z,55.46
2022-09-14T14:06:26.772Z,55.24
2022-09-14T14:08:57.990Z,55.17
2022-09-14T14:11:35.115Z,55.40
2022-09-14T14:14:14.441Z,56.21
2022-09-14T14:16:42.649Z,56.36
2022-09-14T14:19:28.580Z,56.55
2022-09-14T14:22:18.892Z,56.59
2022-09-14T14:27:38.178Z,57.40
2022-09-14T14:30:15.309Z,57.28
2022-09-14T14:32:43.302Z,57.19
2022-09-14T14:35:16.534Z,56.62
2022-09-14T14:37:45.773Z,56.75
2022-09-14T14:40:13.994Z,56.69
2022-09-14T14:42:42.961Z,56.72
2022-09-14T14:45:15.049Z,56.55
2022-09-14T14:47:43.021Z,56.96
2022-09-14T14:50:15.726Z,57.37
2022-09-14T14:52:44.959Z,57.81
2022-09-14T14:55:12.811Z,57.90
2022-09-14T14:57:40.816Z,58.50
2022-09-14T15:00:15.341Z,58.45
2022-09-14T15:02:43.774Z,58.58
2022-09-14T15:05:12.242Z,58.74
2022-09-14T15:07:40.375Z,58.59
2022-09-14T15:10:14.313Z,58.56
2022-09-14T15:12:42.169Z,59.32
2022-09-14T15:15:13.604Z,58.79
2022-09-14T15:17:41.494Z,59.31
2022-09-14T15:20:10.485Z,59.67
2022-09-14T15:22:40.416Z,59.30
2022-09-14T15:25:10.872Z,59.70
2022-09-14T15:27:38.690Z,60.01
2022-09-14T15:30:09.039Z,59.98
2022-09-14T15:32:37.497Z,59.90
2022-09-14T15:35:06.216Z,59.70
2022-09-14T15:37:34.057Z,60.37
2022-09-14T15:40:01.834Z,59.97
2022-09-14T15:42:31.226Z,60.22
2022-09-14T15:44:58.976Z,59.14
2022-09-14T15:47:26.811Z,59.58
2022-09-14T15:49:54.868Z,59.96
2022-09-14T15:52:22.598Z,60.13
2022-09-14T15:54:50.678Z,60.16
2022-09-14T15:57:18.609Z,58.63
2022-09-14T15:59:47.913Z,58.71
2022-09-14T16:02:16.914Z,58.08
2022-09-14T16:04:44.725Z,57.81
2022-09-14T16:07:12.662Z,57.38
2022-09-14T16:09:41.552Z,56.73
2022-09-14T16:12:10.665Z,56.62
2022-09-14T16:14:38.942Z,56.97
2022-09-14T16:17:08.549Z,56.38
2022-09-14T16:19:36.360Z,56.64
2022-09-14T16:22:04.505Z,56.84
2022-09-14T16:24:32.838Z,57.17
2022-09-14T16:27:00.953Z,57.69
2022-09-14T16:29:28.823Z,57.86
2022-09-14T16:31:57.057Z,58.45
2022-09-14T16:34:28.062Z,57.79
2022-09-14T16:36:58.720Z,57.96
2022-09-14T16:39:28.941Z,58.63
2022-09-14T16:41:57.360Z,59.00
2022-09-14T16:44:27.694Z,59.68
2022-09-14T16:46:57.727Z,59.22
2022-09-14T16:49:28.390Z,59.58
2022-09-14T16:51:56.505Z,60.01
2022-09-14T16:54:25.949Z,60.54
2022-09-14T16:56:56.955Z,60.91
2022-09-14T16:59:25.540Z,61.41
2022-09-14T17:01:54.902Z,61.97
2022-09-14T17:04:24.620Z,62.07
2022-09-14T17:06:56.119Z,62.23
2022-09-14T17:09:25.869Z,61.95
2022-09-14T17:11:55.089Z,62.61
2022-09-14T17:14:25.470Z,62.82
2022-09-14T17:16:53.942Z,62.81
2022-09-14T17:19:22.058Z,63.03
2022-09-14T17:21:50.541Z,63.33
2022-09-14T17:24:21.110Z,63.97
2022-09-14T17:26:49.340Z,64.64
2022-09-14T17:29:17.241Z,65.50
2022-09-14T17:32:10.228Z,66.11
2022-09-14T17:34:41.967Z,66.63
2022-09-14T17:37:09.836Z,66.82
2022-09-14T17:39:38.942Z,67.71
2022-09-14T17:42:06.984Z,68.14
2022-09-14T17:44:34.804Z,68.48
2022-09-14T17:47:02.863Z,69.19
2022-09-14T17:49:30.934Z,69.21
2022-09-14T17:51:58.850Z,69.92
2022-09-14T17:54:26.779Z,70.33
2022-09-14T17:56:56.016Z,70.21
2022-09-14T17:59:24.236Z,70.35
2022-09-14T18:01:52.189Z,70.51
2022-09-14T18:04:20.155Z,71.39
2022-09-14T18:06:49.784Z,72.09
2022-09-14T18:09:19.679Z,72.05
2022-09-14T18:11:48.271Z,72.28
2022-09-14T18:14:17.529Z,72.91
2022-09-14T18:16:45.789Z,73.26
2022-09-14T18:19:14.849Z,73.94
2022-09-14T18:21:44.412Z,74.29
2022-09-14T18:24:14.859Z,74.44
2022-09-14T18:26:43.581Z,74.71
2022-09-14T18:29:14.992Z,75.46
2022-09-14T18:31:44.623Z,75.93
2022-09-14T18:34:12.658Z,75.51
2022-09-14T18:36:40.484Z,76.39
2022-09-14T18:39:08.471Z,76.47
2022-09-14T18:41:36.388Z,77.21
2022-09-14T18:44:04.894Z,77.10
2022-09-14T18:46:33.283Z,77.40
2022-09-14T18:49:03.285Z,77.46
2022-09-14T18:51:32.440Z,77.56
2022-09-14T18:54:03.225Z,77.55
2022-09-14T18:56:33.289Z,77.72
2022-09-14T18:59:02.415Z,77.61
2022-09-14T19:01:30.311Z,77.69
2022-09-14T19:03:58.165Z,77.63
2022-09-14T19:06:27.320Z,77.85
2022-09-14T19:08:55.578Z,78.21
2022-09-14T19:11:26.708Z,77.66
2022-09-14T19:13:56.662Z,78.62
2022-09-14T19:16:24.919Z,78.63
2022-09-14T19:18:53.118Z,78.38
2022-09-14T19:21:24.119Z,78.91
2022-09-14T19:24:00.359Z,79.23
2022-09-14T19:26:30.822Z,79.18
2022-09-14T19:29:01.369Z,79.78
2022-09-14T19:31:30.749Z,79.85
2022-09-14T19:33:59.175Z,80.10
2022-09-14T19:36:27.655Z,79.63
2022-09-14T19:38:57.967Z,79.39
2022-09-14T19:41:26.248Z,79.83
2022-09-14T19:43:54.074Z,79.54
2022-09-14T19:46:23.329Z,79.38
2022-09-14T19:48:52.024Z,79.72
2022-09-14T19:51:22.143Z,79.72
2022-09-14T19:53:52.031Z,79.74
2022-09-14T19:56:22.959Z,79.56
2022-09-14T19:58:53.560Z,79.57
2022-09-14T20:01:23.490Z,80.42
2022-09-14T20:03:51.475Z,80.07
2022-09-14T20:06:22.644Z,80.80
2022-09-14T20:08:51.786Z,80.56
2022-09-14T20:11:23.982Z,80.38
2022-09-14T20:13:53.930Z,80.76
2022-09-14T20:16:23.959Z,80.59
2022-09-14T20:18:52.957Z,80.81
2022-09-14T20:21:22.797Z,80.39
2022-09-14T20:24:16.087Z,80.66
2022-09-14T20:26:46.852Z,80.86
2022-09-14T20:29:15.150Z,80.24
2022-09-14T20:31:43.526Z,80.31
2022-09-14T20:34:12.062Z,80.27
2022-09-14T20:36:39.791Z,80.15
2022-09-14T20:39:07.617Z,80.35
2022-09-14T20:41:36.672Z,80.59
2022-09-14T20:44:06.315Z,80.54
2022-09-14T20:46:38.504Z,80.61
2022-09-14T20:49:09.641Z,80.81
2022-09-14T20:51:37.516Z,80.75
2022-09-14T20:54:05.977Z,80.63
2022-09-14T20:56:35.686Z,80.85
2022-09-14T20:59:09.530Z,81.13
2022-09-14T21:01:39.639Z,81.45
2022-09-14T21:04:09.521Z,81.47
2022-09-14T21:06:39.171Z,81.09
2022-09-14T21:09:07.451Z,80.87
2022-09-14T21:11:36.039Z,80.55
2022-09-14T21:14:03.820Z,80.24
2022-09-14T21:16:34.314Z,79.96
2022-09-14T21:19:04.377Z,79.64
2022-09-14T21:21:32.583Z,79.88
2022-09-14T21:24:01.037Z,80.34
2022-09-14T21:26:32.010Z,79.53
2022-09-14T21:29:01.543Z,79.24
2022-09-14T21:31:30.275Z,79.36
2022-09-14T21:34:01.768Z,78.98
2022-09-14T21:36:31.830Z,78.68
2022-09-14T21:39:02.420Z,78.75
2022-09-14T21:41:31.785Z,78.77
2022-09-14T21:43:59.978Z,78.46
2022-09-14T21:46:28.178Z,78.43
2022-09-14T21:48:56.947Z,78.88
2022-09-14T21:51:28.093Z,78.23
2022-09-14T21:53:57.630Z,78.60
2022-09-14T21:56:27.952Z,78.64
2022-09-14T21:58:57.321Z,79.01
2022-09-14T22:01:26.095Z,79.46
2022-09-14T22:03:55.236Z,79.42
2022-09-14T22:06:25.260Z,79.80
2022-09-14T22:08:55.027Z,80.47
2022-09-14T22:11:25.074Z,80.41
2022-09-14T22:13:56.980Z,80.60
2022-09-14T22:16:26.615Z,80.51
2022-09-14T22:18:55.916Z,81.01
2022-09-14T22:21:24.989Z,80.82
2022-09-14T22:23:56.738Z,80.77
2022-09-14T22:26:25.688Z,81.14
2022-09-14T22:28:54.489Z,81.74
2022-09-14T22:31:23.861Z,82.30
2022-09-14T22:33:52.108Z,83.11
2022-09-14T22:36:19.976Z,82.43
2022-09-14T22:38:47.868Z,83.30
2022-09-14T22:41:19.593Z,83.47
2022-09-14T22:43:47.888Z,83.53
2022-09-14T22:46:17.076Z,83.75
2022-09-14T22:48:45.373Z,83.84
2022-09-14T22:51:15.561Z,84.54
2022-09-14T22:53:43.835Z,84.36
2022-09-14T22:56:15.717Z,84.76
2022-09-14T22:58:45.348Z,85.64
2022-09-14T23:01:15.363Z,85.73
2022-09-14T23:03:43.819Z,86.25
2022-09-14T23:06:11.977Z,87.02
2022-09-14T23:08:39.727Z,86.90
2022-09-14T23:11:10.743Z,87.70
2022-09-14T23:13:39.752Z,88.15
2022-09-14T23:16:13.219Z,88.52
2022-09-14T23:18:41.836Z,88.99
2022-09-14T23:21:10.571Z,89.63
2022-09-14T23:23:39.210Z,89.87
2022-09-14T23:26:09.149Z,89.56
2022-09-14T23:28:37.514Z,90.87
2022-09-14T23:31:05.991Z,90.94
2022-09-14T23:33:35.441Z,91.58
2022-09-14T23:36:03.517Z,91.87
2022-09-14T23:38:31.307Z,92.50
2022-09-14T23:40:59.508Z,93.37
2022-09-14T23:43:27.217Z,93.02
2022-09-14T23:45:55.039Z,93.68
2022-09-14T23:48:22.990Z,93.42
2022-09-14T23:50:58.717Z,93.78
2022-09-14T23:53:27.337Z,93.92
2022-09-14T23:55:55.651Z,94.29
2022-09-14T23:58:24.289Z,94.98
